sensor_id;sensor_type;location;lat;lon;timestamp;P1;durP1;ratioP1;P2;durP2;ratioP2
21886;SDS011;11108;49.988;8.182;2024-02-23T00:02:08;0.27;;;0.27;;
21886;SDS011;11108;49.988;8.182;2024-02-23T00:04:33;0.70;;;0.70;;
21886;SDS011;11108;49.988;8.182;2024-02-23T00:06:58;0.53;;;0.53;;
21886;SDS011;11108;49.988;8.182;2024-02-23T00:09:24;0.30;;;0.30;;
21886;SDS011;11108;49.988;8.182;2024-02-23T00:11:49;1.50;;;0.40;;
21886;SDS011;11108;49.988;8.182;2024-02-23T00:14:15;0.50;;;0.50;;
21886;SDS011;11108;49.988;8.182;2024-02-23T00:16:40;0.40;;;0.40;;
21886;SDS011;11108;49.988;8.182;2024-02-23T00:19:07;0.30;;;0.30;;
21886;SDS011;11108;49.988;8.182;2024-02-23T00:21:33;0.77;;;0.60;;
21886;SDS011;11108;49.988;8.182;2024-02-23T00:23:58;0.50;;;0.50;;
21886;SDS011;11108;49.988;8.182;2024-02-23T00:26:23;0.30;;;0.30;;
21886;SDS011;11108;49.988;8.182;2024-02-23T00:28:48;1.70;;;0.63;;
21886;SDS011;11108;49.988;8.182;2024-02-23T00:31:14;0.50;;;0.50;;
21886;SDS011;11108;49.988;8.182;2024-02-23T00:33:39;0.60;;;0.60;;
21886;SDS011;11108;49.988;8.182;2024-02-23T00:36:07;1.37;;;0.47;;
21886;SDS011;11108;49.988;8.182;2024-02-23T00:38:32;0.60;;;0.47;;
21886;SDS011;11108;49.988;8.182;2024-02-23T00:40:57;0.57;;;0.40;;
21886;SDS011;11108;49.988;8.182;2024-02-23T00:43:22;0.40;;;0.40;;
21886;SDS011;11108;49.988;8.182;2024-02-23T00:45:48;0.53;;;0.53;;
21886;SDS011;11108;49.988;8.182;2024-02-23T00:48:13;0.37;;;0.37;;
21886;SDS011;11108;49.988;8.182;2024-02-23T00:50:38;1.00;;;0.40;;
21886;SDS011;11108;49.988;8.182;2024-02-23T00:53:04;1.13;;;0.47;;
21886;SDS011;11108;49.988;8.182;2024-02-23T00:55:29;0.40;;;0.40;;
21886;SDS011;11108;49.988;8.182;2024-02-23T00:57:54;0.43;;;0.37;;
21886;SDS011;11108;49.988;8.182;2024-02-23T01:00:19;0.60;;;0.60;;
21886;SDS011;11108;49.988;8.182;2024-02-23T01:02:44;0.60;;;0.60;;
21886;SDS011;11108;49.988;8.182;2024-02-23T01:05:10;0.50;;;0.50;;
21886;SDS011;11108;49.988;8.182;2024-02-23T01:07:35;0.40;;;0.40;;
21886;SDS011;11108;49.988;8.182;2024-02-23T01:10:00;0.40;;;0.40;;
21886;SDS011;11108;49.988;8.182;2024-02-23T01:12:26;0.60;;;0.50;;
21886;SDS011;11108;49.988;8.182;2024-02-23T01:14:51;0.40;;;0.40;;
21886;SDS011;11108;49.988;8.182;2024-02-23T01:17:16;0.40;;;0.40;;
21886;SDS011;11108;49.988;8.182;2024-02-23T01:19:42;0.30;;;0.30;;
21886;SDS011;11108;49.988;8.182;2024-02-23T01:22:08;0.30;;;0.30;;
21886;SDS011;11108;49.988;8.182;2024-02-23T01:24:33;0.40;;;0.40;;
21886;SDS011;11108;49.988;8.182;2024-02-23T01:26:58;0.53;;;0.47;;
21886;SDS011;11108;49.988;8.182;2024-02-23T01:29:24;0.60;;;0.50;;
21886;SDS011;11108;49.988;8.182;2024-02-23T01:31:50;0.43;;;0.43;;
21886;SDS011;11108;49.988;8.182;2024-02-23T01:34:16;0.30;;;0.30;;
21886;SDS011;11108;49.988;8.182;2024-02-23T01:36:41;0.70;;;0.40;;
21886;SDS011;11108;49.988;8.182;2024-02-23T01:39:07;0.93;;;0.40;;
21886;SDS011;11108;49.988;8.182;2024-02-23T01:41:32;0.50;;;0.50;;
21886;SDS011;11108;49.988;8.182;2024-02-23T01:43:58;1.13;;;0.53;;
21886;SDS011;11108;49.988;8.182;2024-02-23T01:46:23;0.40;;;0.40;;
21886;SDS011;11108;49.988;8.182;2024-02-23T01:48:48;0.50;;;0.50;;
21886;SDS011;11108;49.988;8.182;2024-02-23T01:51:14;0.50;;;0.50;;
21886;SDS011;11108;49.988;8.182;2024-02-23T01:53:39;0.87;;;0.30;;
21886;SDS011;11108;49.988;8.182;2024-02-23T01:56:05;0.40;;;0.40;;
21886;SDS011;11108;49.988;8.182;2024-02-23T01:58:31;0.30;;;0.30;;
21886;SDS011;11108;49.988;8.182;2024-02-23T02:00:58;0.40;;;0.40;;
21886;SDS011;11108;49.988;8.182;2024-02-23T02:03:23;0.40;;;0.40;;
21886;SDS011;11108;49.988;8.182;2024-02-23T02:05:48;0.63;;;0.40;;
21886;SDS011;11108;49.988;8.182;2024-02-23T02:08:15;0.67;;;0.53;;
21886;SDS011;11108;49.988;8.182;2024-02-23T02:10:40;0.30;;;0.30;;
21886;SDS011;11108;49.988;8.182;2024-02-23T02:13:07;0.20;;;0.20;;
21886;SDS011;11108;49.988;8.182;2024-02-23T02:15:32;0.37;;;0.37;;
21886;SDS011;11108;49.988;8.182;2024-02-23T02:17:58;0.57;;;0.40;;
21886;SDS011;11108;49.988;8.182;2024-02-23T02:20:26;0.73;;;0.43;;
21886;SDS011;11108;49.988;8.182;2024-02-23T02:22:52;0.47;;;0.47;;
21886;SDS011;11108;49.988;8.182;2024-02-23T02:25:18;0.73;;;0.50;;
21886;SDS011;11108;49.988;8.182;2024-02-23T02:27:43;0.30;;;0.30;;
21886;SDS011;11108;49.988;8.182;2024-02-23T02:30:10;0.70;;;0.50;;
21886;SDS011;11108;49.988;8.182;2024-02-23T02:32:36;0.20;;;0.20;;
21886;SDS011;11108;49.988;8.182;2024-02-23T02:35:01;0.40;;;0.40;;
21886;SDS011;11108;49.988;8.182;2024-02-23T02:37:26;0.77;;;0.50;;
21886;SDS011;11108;49.988;8.182;2024-02-23T02:39:51;0.73;;;0.40;;
21886;SDS011;11108;49.988;8.182;2024-02-23T02:42:16;0.40;;;0.40;;
21886;SDS011;11108;49.988;8.182;2024-02-23T02:44:42;0.60;;;0.50;;
21886;SDS011;11108;49.988;8.182;2024-02-23T02:47:07;0.70;;;0.33;;
21886;SDS011;11108;49.988;8.182;2024-02-23T02:49:32;0.37;;;0.37;;
21886;SDS011;11108;49.988;8.182;2024-02-23T02:51:57;0.33;;;0.33;;
21886;SDS011;11108;49.988;8.182;2024-02-23T02:54:22;0.43;;;0.30;;
21886;SDS011;11108;49.988;8.182;2024-02-23T02:56:48;0.50;;;0.50;;
21886;SDS011;11108;49.988;8.182;2024-02-23T02:59:13;0.50;;;0.50;;
21886;SDS011;11108;49.988;8.182;2024-02-23T03:01:38;0.40;;;0.40;;
21886;SDS011;11108;49.988;8.182;2024-02-23T03:04:04;0.57;;;0.50;;
21886;SDS011;11108;49.988;8.182;2024-02-23T03:06:29;0.40;;;0.40;;
21886;SDS011;11108;49.988;8.182;2024-02-23T03:08:54;0.40;;;0.40;;
21886;SDS011;11108;49.988;8.182;2024-02-23T03:11:19;0.30;;;0.30;;
21886;SDS011;11108;49.988;8.182;2024-02-23T03:13:45;0.30;;;0.30;;
21886;SDS011;11108;49.988;8.182;2024-02-23T03:16:16;0.50;;;0.50;;
21886;SDS011;11108;49.988;8.182;2024-02-23T03:18:45;0.30;;;0.30;;
21886;SDS011;11108;49.988;8.182;2024-02-23T03:21:10;0.50;;;0.50;;
21886;SDS011;11108;49.988;8.182;2024-02-23T03:23:36;0.40;;;0.40;;
21886;SDS011;11108;49.988;8.182;2024-02-23T03:26:01;0.40;;;0.40;;
21886;SDS011;11108;49.988;8.182;2024-02-23T03:28:27;0.83;;;0.40;;
21886;SDS011;11108;49.988;8.182;2024-02-23T03:30:52;0.67;;;0.30;;
21886;SDS011;11108;49.988;8.182;2024-02-23T03:33:17;0.63;;;0.40;;
21886;SDS011;11108;49.988;8.182;2024-02-23T03:35:42;0.50;;;0.27;;
21886;SDS011;11108;49.988;8.182;2024-02-23T03:38:08;0.40;;;0.40;;
21886;SDS011;11108;49.988;8.182;2024-02-23T03:40:33;0.90;;;0.60;;
21886;SDS011;11108;49.988;8.182;2024-02-23T03:42:59;0.40;;;0.40;;
21886;SDS011;11108;49.988;8.182;2024-02-23T03:45:24;0.73;;;0.40;;
21886;SDS011;11108;49.988;8.182;2024-02-23T03:47:49;0.23;;;0.23;;
21886;SDS011;11108;49.988;8.182;2024-02-23T03:50:14;0.40;;;0.40;;
21886;SDS011;11108;49.988;8.182;2024-02-23T03:52:39;0.47;;;0.40;;
21886;SDS011;11108;49.988;8.182;2024-02-23T03:55:05;0.77;;;0.37;;
21886;SDS011;11108;49.988;8.182;2024-02-23T03:57:30;0.50;;;0.37;;
21886;SDS011;11108;49.988;8.182;2024-02-23T03:59:56;0.40;;;0.40;;
21886;SDS011;11108;49.988;8.182;2024-02-23T04:02:22;0.50;;;0.50;;
21886;SDS011;11108;49.988;8.182;2024-02-23T04:04:47;0.40;;;0.40;;
21886;SDS011;11108;49.988;8.182;2024-02-23T04:07:12;0.43;;;0.43;;
21886;SDS011;11108;49.988;8.182;2024-02-23T04:09:37;0.40;;;0.33;;
21886;SDS011;11108;49.988;8.182;2024-02-23T04:12:03;1.07;;;0.50;;
21886;SDS011;11108;49.988;8.182;2024-02-23T04:14:28;0.60;;;0.53;;
21886;SDS011;11108;49.988;8.182;2024-02-23T04:16:53;0.30;;;0.30;;
21886;SDS011;11108;49.988;8.182;2024-02-23T04:19:19;0.50;;;0.50;;
21886;SDS011;11108;49.988;8.182;2024-02-23T04:21:44;1.30;;;0.60;;
21886;SDS011;11108;49.988;8.182;2024-02-23T04:24:09;0.40;;;0.40;;
21886;SDS011;11108;49.988;8.182;2024-02-23T04:26:34;1.37;;;0.43;;
21886;SDS011;11108;49.988;8.182;2024-02-23T04:29:00;0.30;;;0.30;;
21886;SDS011;11108;49.988;8.182;2024-02-23T04:31:25;0.40;;;0.40;;
21886;SDS011;11108;49.988;8.182;2024-02-23T04:33:50;0.90;;;0.33;;
21886;SDS011;11108;49.988;8.182;2024-02-23T04:36:18;0.40;;;0.40;;
21886;SDS011;11108;49.988;8.182;2024-02-23T04:38:43;0.40;;;0.40;;
21886;SDS011;11108;49.988;8.182;2024-02-23T04:41:09;0.37;;;0.37;;
21886;SDS011;11108;49.988;8.182;2024-02-23T04:43:34;0.30;;;0.30;;
21886;SDS011;11108;49.988;8.182;2024-02-23T04:45:59;0.30;;;0.30;;
21886;SDS011;11108;49.988;8.182;2024-02-23T04:48:24;0.23;;;0.23;;
21886;SDS011;11108;49.988;8.182;2024-02-23T04:50:49;0.93;;;0.50;;
21886;SDS011;11108;49.988;8.182;2024-02-23T04:53:15;0.40;;;0.40;;
21886;SDS011;11108;49.988;8.182;2024-02-23T04:55:40;0.30;;;0.30;;
21886;SDS011;11108;49.988;8.182;2024-02-23T04:58:06;0.40;;;0.40;;
21886;SDS011;11108;49.988;8.182;2024-02-23T05:00:31;0.70;;;0.60;;
21886;SDS011;11108;49.988;8.182;2024-02-23T05:03:01;0.30;;;0.30;;
21886;SDS011;11108;49.988;8.182;2024-02-23T05:05:29;0.30;;;0.30;;
21886;SDS011;11108;49.988;8.182;2024-02-23T05:07:55;0.50;;;0.50;;
21886;SDS011;11108;49.988;8.182;2024-02-23T05:10:20;0.33;;;0.33;;
21886;SDS011;11108;49.988;8.182;2024-02-23T05:12:47;0.40;;;0.40;;
21886;SDS011;11108;49.988;8.182;2024-02-23T05:15:12;0.53;;;0.30;;
21886;SDS011;11108;49.988;8.182;2024-02-23T05:17:38;0.47;;;0.40;;
21886;SDS011;11108;49.988;8.182;2024-02-23T05:20:03;0.50;;;0.50;;
21886;SDS011;11108;49.988;8.182;2024-02-23T05:22:32;0.30;;;0.30;;
21886;SDS011;11108;49.988;8.182;2024-02-23T05:24:58;0.60;;;0.50;;
21886;SDS011;11108;49.988;8.182;2024-02-23T05:27:23;0.50;;;0.50;;
21886;SDS011;11108;49.988;8.182;2024-02-23T05:29:48;0.40;;;0.40;;
21886;SDS011;11108;49.988;8.182;2024-02-23T05:32:13;0.40;;;0.40;;
21886;SDS011;11108;49.988;8.182;2024-02-23T05:34:39;0.47;;;0.30;;
21886;SDS011;11108;49.988;8.182;2024-02-23T05:37:04;0.57;;;0.33;;
21886;SDS011;11108;49.988;8.182;2024-02-23T05:39:29;0.60;;;0.50;;
21886;SDS011;11108;49.988;8.182;2024-02-23T05:41:54;0.40;;;0.40;;
21886;SDS011;11108;49.988;8.182;2024-02-23T05:44:19;0.47;;;0.40;;
21886;SDS011;11108;49.988;8.182;2024-02-23T05:46:45;0.67;;;0.40;;
21886;SDS011;11108;49.988;8.182;2024-02-23T05:49:13;1.07;;;0.57;;
21886;SDS011;11108;49.988;8.182;2024-02-23T05:51:38;1.17;;;0.47;;
21886;SDS011;11108;49.988;8.182;2024-02-23T05:54:07;0.67;;;0.40;;
21886;SDS011;11108;49.988;8.182;2024-02-23T05:56:39;0.40;;;0.40;;
21886;SDS011;11108;49.988;8.182;2024-02-23T05:59:11;0.40;;;0.40;;
21886;SDS011;11108;49.988;8.182;2024-02-23T06:01:37;0.83;;;0.47;;
21886;SDS011;11108;49.988;8.182;2024-02-23T06:04:06;0.63;;;0.63;;
21886;SDS011;11108;49.988;8.182;2024-02-23T06:06:33;0.33;;;0.33;;
21886;SDS011;11108;49.988;8.182;2024-02-23T06:08:59;0.73;;;0.50;;
21886;SDS011;11108;49.988;8.182;2024-02-23T06:11:25;1.03;;;0.30;;
21886;SDS011;11108;49.988;8.182;2024-02-23T06:13:56;0.47;;;0.47;;
21886;SDS011;11108;49.988;8.182;2024-02-23T06:16:21;0.40;;;0.40;;
21886;SDS011;11108;49.988;8.182;2024-02-23T06:18:46;1.13;;;0.30;;
21886;SDS011;11108;49.988;8.182;2024-02-23T06:21:13;0.40;;;0.30;;
21886;SDS011;11108;49.988;8.182;2024-02-23T06:23:38;0.93;;;0.53;;
21886;SDS011;11108;49.988;8.182;2024-02-23T06:26:16;1.00;;;0.60;;
21886;SDS011;11108;49.988;8.182;2024-02-23T06:28:44;0.70;;;0.50;;
21886;SDS011;11108;49.988;8.182;2024-02-23T06:31:13;0.33;;;0.30;;
21886;SDS011;11108;49.988;8.182;2024-02-23T06:33:38;0.53;;;0.40;;
21886;SDS011;11108;49.988;8.182;2024-02-23T06:36:07;0.97;;;0.60;;
21886;SDS011;11108;49.988;8.182;2024-02-23T06:38:32;0.50;;;0.40;;
21886;SDS011;11108;49.988;8.182;2024-02-23T06:40:58;0.60;;;0.40;;
21886;SDS011;11108;49.988;8.182;2024-02-23T06:43:23;0.30;;;0.30;;
21886;SDS011;11108;49.988;8.182;2024-02-23T06:48:37;0.40;;;0.40;;
21886;SDS011;11108;49.988;8.182;2024-02-23T06:51:03;0.33;;;0.33;;
21886;SDS011;11108;49.988;8.182;2024-02-23T06:53:29;0.37;;;0.30;;
21886;SDS011;11108;49.988;8.182;2024-02-23T06:55:57;1.20;;;0.50;;
21886;SDS011;11108;49.988;8.182;2024-02-23T06:58:24;1.33;;;0.50;;
21886;SDS011;11108;49.988;8.182;2024-02-23T07:00:58;0.50;;;0.50;;
21886;SDS011;11108;49.988;8.182;2024-02-23T07:03:36;0.87;;;0.50;;
21886;SDS011;11108;49.988;8.182;2024-02-23T07:06:06;0.70;;;0.57;;
21886;SDS011;11108;49.988;8.182;2024-02-23T07:08:31;1.27;;;0.40;;
21886;SDS011;11108;49.988;8.182;2024-02-23T07:10:56;0.57;;;0.40;;
21886;SDS011;11108;49.988;8.182;2024-02-23T07:13:22;1.47;;;0.50;;
21886;SDS011;11108;49.988;8.182;2024-02-23T07:15:47;0.60;;;0.60;;
21886;SDS011;11108;49.988;8.182;2024-02-23T07:18:15;2.27;;;0.60;;
21886;SDS011;11108;49.988;8.182;2024-02-23T07:20:47;0.93;;;0.60;;
21886;SDS011;11108;49.988;8.182;2024-02-23T07:23:12;1.30;;;0.40;;
21886;SDS011;11108;49.988;8.182;2024-02-23T07:25:37;0.87;;;0.40;;
21886;SDS011;11108;49.988;8.182;2024-02-23T07:28:06;0.50;;;0.50;;
21886;SDS011;11108;49.988;8.182;2024-02-23T07:30:31;0.50;;;0.50;;
21886;SDS011;11108;49.988;8.182;2024-02-23T07:32:56;1.33;;;0.60;;
21886;SDS011;11108;49.988;8.182;2024-02-23T07:35:42;1.03;;;0.60;;
21886;SDS011;11108;49.988;8.182;2024-02-23T07:38:07;0.63;;;0.50;;
21886;SDS011;11108;49.988;8.182;2024-02-23T07:40:36;1.00;;;0.50;;
21886;SDS011;11108;49.988;8.182;2024-02-23T07:43:10;1.00;;;0.70;;
21886;SDS011;11108;49.988;8.182;2024-02-23T07:45:39;2.80;;;0.80;;
21886;SDS011;11108;49.988;8.182;2024-02-23T07:48:04;0.30;;;0.30;;
21886;SDS011;11108;49.988;8.182;2024-02-23T07:50:29;0.60;;;0.60;;
21886;SDS011;11108;49.988;8.182;2024-02-23T07:52:55;0.67;;;0.60;;
21886;SDS011;11108;49.988;8.182;2024-02-23T07:55:20;0.97;;;0.33;;
21886;SDS011;11108;49.988;8.182;2024-02-23T07:57:45;0.70;;;0.50;;
21886;SDS011;11108;49.988;8.182;2024-02-23T08:00:10;1.17;;;0.50;;
21886;SDS011;11108;49.988;8.182;2024-02-23T08:02:36;1.27;;;0.80;;
21886;SDS011;11108;49.988;8.182;2024-02-23T08:05:02;1.83;;;0.50;;
21886;SDS011;11108;49.988;8.182;2024-02-23T08:07:27;0.53;;;0.40;;
21886;SDS011;11108;49.988;8.182;2024-02-23T08:09:53;0.77;;;0.40;;
21886;SDS011;11108;49.988;8.182;2024-02-23T08:12:18;0.40;;;0.40;;
21886;SDS011;11108;49.988;8.182;2024-02-23T08:14:43;2.07;;;0.63;;
21886;SDS011;11108;49.988;8.182;2024-02-23T08:17:10;2.22;;;0.70;;
21886;SDS011;11108;49.988;8.182;2024-02-23T08:19:35;1.60;;;0.80;;
21886;SDS011;11108;49.988;8.182;2024-02-23T08:22:00;0.63;;;0.63;;
21886;SDS011;11108;49.988;8.182;2024-02-23T08:24:26;1.60;;;0.60;;
21886;SDS011;11108;49.988;8.182;2024-02-23T08:26:51;0.77;;;0.67;;
21886;SDS011;11108;49.988;8.182;2024-02-23T08:29:16;1.90;;;0.60;;
21886;SDS011;11108;49.988;8.182;2024-02-23T08:31:42;4.00;;;1.00;;
21886;SDS011;11108;49.988;8.182;2024-02-23T08:34:07;0.83;;;0.50;;
21886;SDS011;11108;49.988;8.182;2024-02-23T08:36:32;1.60;;;0.63;;
21886;SDS011;11108;49.988;8.182;2024-02-23T08:38:57;2.43;;;1.10;;
21886;SDS011;11108;49.988;8.182;2024-02-23T08:41:22;17.50;;;5.20;;
21886;SDS011;11108;49.988;8.182;2024-02-23T08:43:48;32.53;;;8.03;;
21886;SDS011;11108;49.988;8.182;2024-02-23T08:46:14;20.07;;;7.77;;
21886;SDS011;11108;49.988;8.182;2024-02-23T08:48:40;26.50;;;7.83;;
21886;SDS011;11108;49.988;8.182;2024-02-23T08:51:05;22.83;;;7.60;;
21886;SDS011;11108;49.988;8.182;2024-02-23T08:53:30;23.30;;;7.87;;
21886;SDS011;11108;49.988;8.182;2024-02-23T08:55:55;19.40;;;5.90;;
21886;SDS011;11108;49.988;8.182;2024-02-23T08:58:20;18.23;;;6.37;;
21886;SDS011;11108;49.988;8.182;2024-02-23T09:00:46;19.13;;;6.07;;
21886;SDS011;11108;49.988;8.182;2024-02-23T09:03:11;14.30;;;5.97;;
21886;SDS011;11108;49.988;8.182;2024-02-23T09:05:36;16.17;;;5.70;;
21886;SDS011;11108;49.988;8.182;2024-02-23T09:08:02;13.27;;;4.97;;
21886;SDS011;11108;49.988;8.182;2024-02-23T09:10:27;18.37;;;5.13;;
21886;SDS011;11108;49.988;8.182;2024-02-23T09:12:52;16.20;;;5.00;;
21886;SDS011;11108;49.988;8.182;2024-02-23T09:15:17;12.57;;;5.27;;
21886;SDS011;11108;49.988;8.182;2024-02-23T09:17:43;19.90;;;5.07;;
21886;SDS011;11108;49.988;8.182;2024-02-23T09:20:08;13.00;;;4.93;;
21886;SDS011;11108;49.988;8.182;2024-02-23T09:22:36;14.90;;;4.37;;
21886;SDS011;11108;49.988;8.182;2024-02-23T09:25:02;12.30;;;4.90;;
21886;SDS011;11108;49.988;8.182;2024-02-23T09:27:27;10.47;;;4.17;;
21886;SDS011;11108;49.988;8.182;2024-02-23T09:29:53;9.97;;;3.97;;
21886;SDS011;11108;49.988;8.182;2024-02-23T09:32:18;10.03;;;4.10;;
21886;SDS011;11108;49.988;8.182;2024-02-23T09:34:43;9.53;;;3.83;;
21886;SDS011;11108;49.988;8.182;2024-02-23T09:37:08;10.33;;;4.23;;
21886;SDS011;11108;49.988;8.182;2024-02-23T09:39:34;6.97;;;3.53;;
21886;SDS011;11108;49.988;8.182;2024-02-23T09:41:59;7.70;;;3.43;;
21886;SDS011;11108;49.988;8.182;2024-02-23T09:44:26;10.07;;;3.83;;
21886;SDS011;11108;49.988;8.182;2024-02-23T09:46:55;7.67;;;3.43;;
21886;SDS011;11108;49.988;8.182;2024-02-23T09:49:21;10.10;;;3.77;;
21886;SDS011;11108;49.988;8.182;2024-02-23T09:51:46;7.23;;;3.40;;
21886;SDS011;11108;49.988;8.182;2024-02-23T09:54:11;7.47;;;3.60;;
21886;SDS011;11108;49.988;8.182;2024-02-23T09:56:36;6.10;;;3.60;;
21886;SDS011;11108;49.988;8.182;2024-02-23T09:59:03;6.63;;;2.87;;
21886;SDS011;11108;49.988;8.182;2024-02-23T10:01:29;8.93;;;3.80;;
21886;SDS011;11108;49.988;8.182;2024-02-23T10:03:56;6.57;;;2.97;;
21886;SDS011;11108;49.988;8.182;2024-02-23T10:06:22;7.03;;;3.00;;
21886;SDS011;11108;49.988;8.182;2024-02-23T10:08:47;6.93;;;2.97;;
21886;SDS011;11108;49.988;8.182;2024-02-23T10:11:12;5.43;;;3.03;;
21886;SDS011;11108;49.988;8.182;2024-02-23T10:13:38;6.00;;;3.00;;
21886;SDS011;11108;49.988;8.182;2024-02-23T10:16:03;6.80;;;2.93;;
21886;SDS011;11108;49.988;8.182;2024-02-23T10:18:29;6.07;;;2.67;;
21886;SDS011;11108;49.988;8.182;2024-02-23T10:20:54;5.73;;;2.70;;
21886;SDS011;11108;49.988;8.182;2024-02-23T10:23:19;4.23;;;1.90;;
21886;SDS011;11108;49.988;8.182;2024-02-23T10:25:45;4.00;;;2.27;;
21886;SDS011;11108;49.988;8.182;2024-02-23T10:28:10;6.30;;;1.90;;
21886;SDS011;11108;49.988;8.182;2024-02-23T10:30:36;7.20;;;2.03;;
21886;SDS011;11108;49.988;8.182;2024-02-23T10:33:01;3.90;;;1.97;;
21886;SDS011;11108;49.988;8.182;2024-02-23T10:35:28;3.80;;;1.80;;
21886;SDS011;11108;49.988;8.182;2024-02-23T10:37:55;2.80;;;1.47;;
21886;SDS011;11108;49.988;8.182;2024-02-23T10:40:20;4.40;;;1.80;;
21886;SDS011;11108;49.988;8.182;2024-02-23T10:42:48;2.93;;;1.50;;
21886;SDS011;11108;49.988;8.182;2024-02-23T10:45:19;2.57;;;1.23;;
21886;SDS011;11108;49.988;8.182;2024-02-23T10:47:45;2.00;;;1.17;;
21886;SDS011;11108;49.988;8.182;2024-02-23T10:50:11;3.73;;;1.40;;
21886;SDS011;11108;49.988;8.182;2024-02-23T10:52:40;1.73;;;1.20;;
21886;SDS011;11108;49.988;8.182;2024-02-23T10:55:05;2.10;;;1.47;;
21886;SDS011;11108;49.988;8.182;2024-02-23T10:57:32;3.70;;;1.30;;
21886;SDS011;11108;49.988;8.182;2024-02-23T10:59:59;1.47;;;1.17;;
21886;SDS011;11108;49.988;8.182;2024-02-23T11:02:24;1.97;;;1.40;;
21886;SDS011;11108;49.988;8.182;2024-02-23T11:04:50;1.67;;;0.90;;
21886;SDS011;11108;49.988;8.182;2024-02-23T11:07:20;2.90;;;1.17;;
21886;SDS011;11108;49.988;8.182;2024-02-23T11:09:51;1.13;;;1.03;;
21886;SDS011;11108;49.988;8.182;2024-02-23T11:12:23;3.27;;;0.97;;
21886;SDS011;11108;49.988;8.182;2024-02-23T11:14:49;1.40;;;0.93;;
21886;SDS011;11108;49.988;8.182;2024-02-23T11:17:18;2.90;;;1.13;;
21886;SDS011;11108;49.988;8.182;2024-02-23T11:19:45;1.50;;;1.00;;
21886;SDS011;11108;49.988;8.182;2024-02-23T11:22:11;2.77;;;1.47;;
21886;SDS011;11108;49.988;8.182;2024-02-23T11:24:41;1.47;;;0.87;;
21886;SDS011;11108;49.988;8.182;2024-02-23T11:27:12;1.63;;;1.10;;
21886;SDS011;11108;49.988;8.182;2024-02-23T11:29:37;2.27;;;1.00;;
21886;SDS011;11108;49.988;8.182;2024-02-23T11:32:11;1.67;;;1.30;;
21886;SDS011;11108;49.988;8.182;2024-02-23T11:34:37;0.93;;;0.83;;
21886;SDS011;11108;49.988;8.182;2024-02-23T11:37:09;0.80;;;0.80;;
21886;SDS011;11108;49.988;8.182;2024-02-23T11:39:35;2.23;;;0.97;;
21886;SDS011;11108;49.988;8.182;2024-02-23T11:42:02;1.57;;;0.90;;
21886;SDS011;11108;49.988;8.182;2024-02-23T11:44:27;4.10;;;1.80;;
21886;SDS011;11108;49.988;8.182;2024-02-23T11:46:52;4.30;;;1.50;;
21886;SDS011;11108;49.988;8.182;2024-02-23T11:49:17;7.13;;;3.13;;
21886;SDS011;11108;49.988;8.182;2024-02-23T11:51:43;9.50;;;5.17;;
21886;SDS011;11108;49.988;8.182;2024-02-23T11:54:09;7.63;;;3.90;;
21886;SDS011;11108;49.988;8.182;2024-02-23T11:56:34;10.50;;;5.87;;
21886;SDS011;11108;49.988;8.182;2024-02-23T11:59:00;13.30;;;5.93;;
21886;SDS011;11108;49.988;8.182;2024-02-23T12:01:28;20.07;;;6.47;;
21886;SDS011;11108;49.988;8.182;2024-02-23T12:03:53;19.47;;;7.83;;
21886;SDS011;11108;49.988;8.182;2024-02-23T12:06:19;18.53;;;8.33;;
21886;SDS011;11108;49.988;8.182;2024-02-23T12:08:45;21.03;;;8.33;;
21886;SDS011;11108;49.988;8.182;2024-02-23T12:11:11;23.83;;;10.13;;
21886;SDS011;11108;49.988;8.182;2024-02-23T12:13:38;18.37;;;9.87;;
21886;SDS011;11108;49.988;8.182;2024-02-23T12:16:04;20.37;;;8.77;;
21886;SDS011;11108;49.988;8.182;2024-02-23T12:18:33;21.50;;;9.37;;
21886;SDS011;11108;49.988;8.182;2024-02-23T12:20:59;19.97;;;9.53;;
21886;SDS011;11108;49.988;8.182;2024-02-23T12:23:24;18.20;;;9.87;;
21886;SDS011;11108;49.988;8.182;2024-02-23T12:26:07;23.43;;;10.17;;
21886;SDS011;11108;49.988;8.182;2024-02-23T12:28:33;21.23;;;11.07;;
21886;SDS011;11108;49.988;8.182;2024-02-23T12:30:59;19.83;;;11.13;;
21886;SDS011;11108;49.988;8.182;2024-02-23T12:33:24;20.03;;;10.40;;
21886;SDS011;11108;49.988;8.182;2024-02-23T12:35:53;23.40;;;11.03;;
21886;SDS011;11108;49.988;8.182;2024-02-23T12:38:18;25.73;;;10.87;;
21886;SDS011;11108;49.988;8.182;2024-02-23T12:40:46;24.67;;;10.40;;
21886;SDS011;11108;49.988;8.182;2024-02-23T12:43:12;23.37;;;10.57;;
21886;SDS011;11108;49.988;8.182;2024-02-23T12:45:37;18.67;;;10.57;;
21886;SDS011;11108;49.988;8.182;2024-02-23T12:48:02;24.53;;;9.93;;
21886;SDS011;11108;49.988;8.182;2024-02-23T12:50:29;21.47;;;10.03;;
21886;SDS011;11108;49.988;8.182;2024-02-23T12:52:54;19.43;;;9.83;;
21886;SDS011;11108;49.988;8.182;2024-02-23T12:55:20;18.47;;;9.60;;
21886;SDS011;11108;49.988;8.182;2024-02-23T12:57:45;21.10;;;9.70;;
21886;SDS011;11108;49.988;8.182;2024-02-23T13:00:10;21.57;;;10.73;;
21886;SDS011;11108;49.988;8.182;2024-02-23T13:02:35;20.70;;;10.50;;
21886;SDS011;11108;49.988;8.182;2024-02-23T13:05:01;23.00;;;11.03;;
21886;SDS011;11108;49.988;8.182;2024-02-23T13:07:26;22.63;;;10.47;;
21886;SDS011;11108;49.988;8.182;2024-02-23T13:09:52;25.97;;;11.20;;
21886;SDS011;11108;49.988;8.182;2024-02-23T13:12:17;18.37;;;10.37;;
21886;SDS011;11108;49.988;8.182;2024-02-23T13:14:42;25.23;;;10.77;;
21886;SDS011;11108;49.988;8.182;2024-02-23T13:17:08;20.07;;;10.37;;
21886;SDS011;11108;49.988;8.182;2024-02-23T13:19:33;22.43;;;10.10;;
21886;SDS011;11108;49.988;8.182;2024-02-23T13:21:58;20.53;;;10.23;;
21886;SDS011;11108;49.988;8.182;2024-02-23T13:24:25;22.47;;;10.73;;
21886;SDS011;11108;49.988;8.182;2024-02-23T13:26:51;22.80;;;10.50;;
21886;SDS011;11108;49.988;8.182;2024-02-23T13:29:16;21.33;;;10.97;;
21886;SDS011;11108;49.988;8.182;2024-02-23T13:31:41;25.13;;;10.63;;
21886;SDS011;11108;49.988;8.182;2024-02-23T13:34:07;18.37;;;9.50;;
21886;SDS011;11108;49.988;8.182;2024-02-23T13:36:32;18.70;;;9.70;;
21886;SDS011;11108;49.988;8.182;2024-02-23T13:38:57;22.37;;;9.70;;
21886;SDS011;11108;49.988;8.182;2024-02-23T13:41:22;21.63;;;9.93;;
21886;SDS011;11108;49.988;8.182;2024-02-23T13:43:47;18.77;;;9.07;;
21886;SDS011;11108;49.988;8.182;2024-02-23T13:46:13;17.27;;;9.27;;
21886;SDS011;11108;49.988;8.182;2024-02-23T13:48:38;18.40;;;8.90;;
21886;SDS011;11108;49.988;8.182;2024-02-23T13:51:03;15.27;;;9.03;;
21886;SDS011;11108;49.988;8.182;2024-02-23T13:53:30;14.43;;;8.00;;
21886;SDS011;11108;49.988;8.182;2024-02-23T13:55:56;20.87;;;8.77;;
21886;SDS011;11108;49.988;8.182;2024-02-23T13:58:21;17.60;;;9.00;;
21886;SDS011;11108;49.988;8.182;2024-02-23T14:00:46;14.47;;;7.60;;
21886;SDS011;11108;49.988;8.182;2024-02-23T14:03:15;15.67;;;7.73;;
21886;SDS011;11108;49.988;8.182;2024-02-23T14:05:41;16.30;;;8.33;;
21886;SDS011;11108;49.988;8.182;2024-02-23T14:08:09;15.50;;;8.23;;
21886;SDS011;11108;49.988;8.182;2024-02-23T14:10:34;16.30;;;7.80;;
21886;SDS011;11108;49.988;8.182;2024-02-23T14:12:59;16.70;;;7.53;;
21886;SDS011;11108;49.988;8.182;2024-02-23T14:15:25;16.10;;;7.30;;
21886;SDS011;11108;49.988;8.182;2024-02-23T14:17:52;16.03;;;8.07;;
21886;SDS011;11108;49.988;8.182;2024-02-23T14:20:17;18.60;;;7.63;;
21886;SDS011;11108;49.988;8.182;2024-02-23T14:22:42;14.77;;;7.33;;
21886;SDS011;11108;49.988;8.182;2024-02-23T14:25:08;17.97;;;8.17;;
21886;SDS011;11108;49.988;8.182;2024-02-23T14:27:33;14.03;;;6.83;;
21886;SDS011;11108;49.988;8.182;2024-02-23T14:29:58;14.57;;;7.10;;
21886;SDS011;11108;49.988;8.182;2024-02-23T14:32:23;14.67;;;6.93;;
21886;SDS011;11108;49.988;8.182;2024-02-23T14:34:48;12.30;;;6.43;;
21886;SDS011;11108;49.988;8.182;2024-02-23T14:37:14;11.20;;;6.30;;
21886;SDS011;11108;49.988;8.182;2024-02-23T14:39:40;12.23;;;6.60;;